createdAt,value
2023-02-02T00:01:29.683Z,98214.13
2023-02-02T00:04:36.801Z,98198.59
2023-02-02T00:07:40.364Z,98210.50
2023-02-02T00:10:45.169Z,98202.28
2023-02-02T00:13:49.128Z,98198.59
2023-02-02T00:16:54.684Z,98190.47
2023-02-02T00:20:00.682Z,98192.81
2023-02-02T00:23:05.487Z,98196.44
2023-02-02T00:26:09.166Z,98187.97
2023-02-02T00:29:20.509Z,98202.66
2023-02-02T00:32:24.609Z,98212.75
2023-02-02T00:35:29.954Z,98208.56
2023-02-02T00:38:34.883Z,98201.19
2023-02-02T00:41:38.791Z,98195.06
2023-02-02T00:44:59.507Z,98194.34
2023-02-02T00:48:04.323Z,98189.59
2023-02-02T00:51:09.600Z,98183.69
2023-02-02T00:54:14.401Z,98189.84
2023-02-02T00:57:19.822Z,98181.09
2023-02-02T01:00:27.163Z,98167.00
2023-02-02T01:03:31.321Z,98162.91
2023-02-02T01:06:37.181Z,98145.13
2023-02-02T01:09:40.829Z,98144.84
2023-02-02T01:12:45.204Z,98145.84
2023-02-02T01:15:49.316Z,98145.97
2023-02-02T01:18:54.238Z,98144.19
2023-02-02T01:21:59.295Z,98136.22
2023-02-02T01:25:03.356Z,98121.28
2023-02-02T01:28:07.874Z,98118.38
2023-02-02T01:31:15.965Z,98109.72
2023-02-02T01:34:19.934Z,98112.97
2023-02-02T01:37:25.767Z,98107.03
2023-02-02T01:40:29.791Z,98118.31
2023-02-02T01:43:56.310Z,98108.50
2023-02-02T01:46:59.944Z,98114.97
2023-02-02T01:50:05.692Z,98122.19
2023-02-02T01:53:11.759Z,98119.41
2023-02-02T01:56:21.109Z,98125.41
2023-02-02T01:59:26.620Z,98121.91
2023-02-02T02:02:32.645Z,98127.25
2023-02-02T02:05:42.925Z,98124.31
2023-02-02T02:08:53.433Z,98120.16
2023-02-02T02:11:57.247Z,98117.56
2023-02-02T02:15:18.874Z,98105.13
2023-02-02T02:18:35.927Z,98098.66
2023-02-02T02:22:09.194Z,98101.66
2023-02-02T02:26:01.608Z,98112.00
2023-02-02T02:29:35.703Z,98102.25
2023-02-02T02:32:47.685Z,98097.44
2023-02-02T02:36:00.270Z,98098.03
2023-02-02T02:39:12.105Z,98092.09
2023-02-02T02:42:23.063Z,98092.78
2023-02-02T02:45:30.194Z,98095.22
2023-02-02T02:48:35.838Z,98117.47
2023-02-02T02:51:48.745Z,98128.44
2023-02-02T02:55:00.837Z,98119.97
2023-02-02T02:58:15.145Z,98134.16
2023-02-02T03:01:28.279Z,98143.38
2023-02-02T03:04:45.272Z,98150.63
2023-02-02T03:07:53.254Z,98168.84
2023-02-02T03:10:59.370Z,98160.63
2023-02-02T03:14:04.572Z,98163.19
2023-02-02T03:17:08.482Z,98171.25
2023-02-02T03:20:14.968Z,98155.47
2023-02-02T03:23:18.503Z,98123.53
2023-02-02T03:26:22.438Z,98108.00
2023-02-02T03:29:26.832Z,98097.19
2023-02-02T03:32:30.530Z,98099.00
2023-02-02T03:35:35.699Z,98094.69
2023-02-02T03:38:39.719Z,98093.88
2023-02-02T03:41:43.172Z,98081.19
2023-02-02T03:44:49.811Z,98068.00
2023-02-02T03:47:53.587Z,98061.66
2023-02-02T03:50:59.042Z,98062.63
2023-02-02T03:54:02.675Z,98046.47
2023-02-02T03:57:06.532Z,98059.31
2023-02-02T04:00:11.291Z,98061.44
2023-02-02T04:03:17.722Z,98052.69
2023-02-02T04:06:22.625Z,98054.13
2023-02-02T04:09:27.307Z,98041.75
2023-02-02T04:12:30.807Z,98039.97
2023-02-02T04:15:35.085Z,98032.16
2023-02-02T04:18:39.302Z,98033.63
2023-02-02T04:21:47.305Z,98033.81
2023-02-02T04:24:50.953Z,98022.69
2023-02-02T04:27:54.998Z,98018.16
2023-02-02T04:30:59.344Z,98008.59
2023-02-02T04:34:04.260Z,97998.72
2023-02-02T04:37:11.946Z,98008.34
2023-02-02T04:40:16.434Z,98018.97
2023-02-02T04:43:20.312Z,98014.50
2023-02-02T04:46:25.845Z,98008.41
2023-02-02T04:49:29.455Z,98012.09
2023-02-02T04:52:35.585Z,98009.13
2023-02-02T04:55:39.966Z,98012.53
2023-02-02T04:58:45.483Z,98014.22
2023-02-02T05:01:51.178Z,98013.66
2023-02-02T05:04:55.182Z,98011.25
2023-02-02T05:08:01.131Z,98010.09
2023-02-02T05:11:09.921Z,98014.31
2023-02-02T05:14:13.651Z,98019.03
2023-02-02T05:17:17.618Z,98018.03
2023-02-02T05:20:21.771Z,98014.94
2023-02-02T05:23:28.448Z,98026.50
2023-02-02T05:26:32.236Z,98023.81
2023-02-02T05:29:36.202Z,98031.44
2023-02-02T05:32:39.697Z,98030.88
2023-02-02T05:35:43.580Z,98035.38
2023-02-02T05:38:49.111Z,98023.75
2023-02-02T05:41:53.141Z,98025.25
2023-02-02T05:44:56.580Z,98019.81
2023-02-02T05:48:01.204Z,98019.91
2023-02-02T05:51:09.044Z,98029.84
2023-02-02T05:54:20.463Z,98022.72
2023-02-02T05:57:24.159Z,98029.94
2023-02-02T06:00:28.107Z,98028.00
2023-02-02T06:03:32.277Z,98033.97
2023-02-02T06:06:38.070Z,98022.69
2023-02-02T06:09:43.328Z,98025.66
2023-02-02T06:12:48.112Z,98015.00
2023-02-02T06:15:51.764Z,98009.75
2023-02-02T06:18:56.051Z,98004.56
2023-02-02T06:22:00.116Z,98008.16
2023-02-02T06:25:08.066Z,98008.69
2023-02-02T06:28:12.109Z,98005.06
2023-02-02T06:31:19.346Z,98007.09
2023-02-02T06:34:23.143Z,98017.56
2023-02-02T06:37:28.992Z,98008.66
2023-02-02T06:40:35.685Z,98014.38
2023-02-02T06:43:40.267Z,98007.56
2023-02-02T06:46:44.098Z,98008.47
2023-02-02T06:49:48.378Z,98003.84
2023-02-02T06:52:52.657Z,98010.28
2023-02-02T06:56:00.581Z,98008.66
2023-02-02T06:59:04.641Z,98008.28
2023-02-02T07:02:12.151Z,98016.34
2023-02-02T07:05:15.740Z,98014.16
2023-02-02T07:08:20.674Z,98019.84
2023-02-02T07:11:25.823Z,98019.34
2023-02-02T07:14:31.622Z,98014.84
2023-02-02T07:17:35.495Z,98016.63
2023-02-02T07:20:39.801Z,98031.00
2023-02-02T07:23:43.632Z,98027.72
2023-02-02T07:26:49.285Z,98033.81
2023-02-02T07:29:52.732Z,98020.28
2023-02-02T07:32:56.654Z,98032.25
2023-02-02T07:36:00.146Z,98026.91
2023-02-02T07:39:06.242Z,97999.88
2023-02-02T07:42:12.393Z,98018.19
2023-02-02T07:45:27.534Z,98013.88
2023-02-02T07:48:35.512Z,98020.09
2023-02-02T07:51:41.642Z,98012.31
2023-02-02T07:54:48.001Z,98005.78
2023-02-02T07:57:59.064Z,98017.38
2023-02-02T08:01:03.552Z,98012.41
2023-02-02T08:04:07.477Z,98011.31
2023-02-02T08:07:11.030Z,98005.94
2023-02-02T08:10:15.682Z,98013.38
2023-02-02T08:13:21.360Z,98008.19
2023-02-02T08:16:26.358Z,98016.75
2023-02-02T08:19:29.965Z,98018.91
2023-02-02T08:22:33.832Z,98016.53
2023-02-02T08:25:37.325Z,98008.09
2023-02-02T08:28:44.206Z,98010.88
2023-02-02T08:31:48.399Z,98025.25
2023-02-02T08:34:53.133Z,98033.56
2023-02-02T08:37:56.547Z,98022.81
2023-02-02T08:41:06.113Z,98041.22
2023-02-02T08:44:15.407Z,98061.88
2023-02-02T08:47:20.217Z,98079.47
2023-02-02T08:50:24.332Z,98084.63
2023-02-02T08:53:29.295Z,98101.50
2023-02-02T08:56:33.009Z,98104.56
2023-02-02T08:59:39.956Z,98099.25
2023-02-02T09:02:43.765Z,98099.06
2023-02-02T09:05:47.602Z,98102.13
2023-02-02T09:08:51.129Z,98111.91
2023-02-02T09:11:56.421Z,98128.22
2023-02-02T09:15:01.912Z,98117.38
2023-02-02T09:18:06.492Z,98125.84
2023-02-02T09:21:12.779Z,98133.06
2023-02-02T09:24:17.007Z,98140.94
2023-02-02T09:27:20.587Z,98151.13
2023-02-02T09:30:26.295Z,98146.72
2023-02-02T09:33:30.097Z,98140.53
2023-02-02T09:36:34.962Z,98160.78
2023-02-02T09:39:38.428Z,98181.03
2023-02-02T09:42:57.600Z,98173.44
2023-02-02T09:46:11.120Z,98185.00
2023-02-02T09:49:21.388Z,98183.47
2023-02-02T09:52:29.764Z,98182.41
2023-02-02T09:55:38.197Z,98177.13
2023-02-02T09:58:51.108Z,98190.16
2023-02-02T10:02:00.106Z,98185.41
2023-02-02T10:05:11.288Z,98178.34
2023-02-02T10:08:34.382Z,98185.56
2023-02-02T10:11:45.439Z,98184.00
2023-02-02T10:14:55.668Z,98185.41
2023-02-02T10:18:06.301Z,98169.72
2023-02-02T10:21:15.103Z,98166.72
2023-02-02T10:24:22.869Z,98162.88
2023-02-02T10:27:37.839Z,98182.97
2023-02-02T10:30:47.377Z,98186.56
2023-02-02T10:34:07.611Z,98190.00
2023-02-02T10:37:23.780Z,98195.66
2023-02-02T10:40:44.193Z,98201.09
2023-02-02T10:44:16.518Z,98198.03
2023-02-02T10:47:27.548Z,98196.06
2023-02-02T10:50:36.357Z,98198.22
2023-02-02T10:53:41.429Z,98198.16
2023-02-02T10:56:52.786Z,98191.84
2023-02-02T11:00:06.583Z,98184.81
2023-02-02T11:03:12.767Z,98181.34
2023-02-02T11:06:35.434Z,98172.75
2023-02-02T11:09:43.515Z,98177.94
2023-02-02T11:12:53.173Z,98163.19
2023-02-02T11:16:23.503Z,98171.50
2023-02-02T11:19:30.520Z,98169.34
2023-02-02T11:22:38.659Z,98168.88
2023-02-02T11:25:44.477Z,98174.25
2023-02-02T11:28:50.624Z,98165.00
2023-02-02T11:31:54.726Z,98160.34
2023-02-02T11:35:23.755Z,98149.94
2023-02-02T11:38:30.177Z,98148.69
2023-02-02T11:41:33.818Z,98160.44
2023-02-02T11:44:41.279Z,98166.22
2023-02-02T11:47:47.026Z,98170.31
2023-02-02T11:50:53.956Z,98170.53
2023-02-02T11:54:13.787Z,98167.03
2023-02-02T11:57:21.083Z,98154.91
2023-02-02T12:00:27.358Z,98156.28
2023-02-02T12:03:40.475Z,98153.66
2023-02-02T12:06:44.497Z,98156.25
2023-02-02T12:09:50.560Z,98164.66
2023-02-02T12:13:01.393Z,98152.88
2023-02-02T12:16:19.013Z,98134.06
2023-02-02T12:19:46.839Z,98131.22
2023-02-02T12:23:10.237Z,98124.69
2023-02-02T12:26:24.178Z,98118.59
2023-02-02T12:29:38.968Z,98119.28
2023-02-02T12:33:03.059Z,98123.03
2023-02-02T12:36:27.469Z,98127.72
2023-02-02T12:39:44.846Z,98124.28
2023-02-02T12:43:04.159Z,98100.84
2023-02-02T12:46:22.651Z,98102.59
2023-02-02T12:49:46.163Z,98105.72
2023-02-02T12:53:08.880Z,98110.06
2023-02-02T12:56:24.523Z,98113.50
2023-02-02T12:59:53.336Z,98131.69
2023-02-02T13:03:13.057Z,98133.63
2023-02-02T13:07:05.539Z,98155.47
2023-02-02T13:10:19.595Z,98164.63
2023-02-02T13:13:26.965Z,98170.81
2023-02-02T13:16:36.604Z,98163.16
2023-02-02T13:19:44.454Z,98163.53
2023-02-02T13:22:51.498Z,98168.19
2023-02-02T13:26:00.728Z,98153.66
2023-02-02T13:29:09.436Z,98151.66
2023-02-02T13:32:22.489Z,98157.47
2023-02-02T13:35:34.975Z,98175.09
2023-02-02T13:38:42.270Z,98177.75
2023-02-02T13:41:48.365Z,98173.69
2023-02-02T13:44:59.906Z,98165.28
2023-02-02T13:48:17.861Z,98176.97
2023-02-02T13:51:43.596Z,98182.63
2023-02-02T13:55:16.496Z,98172.31
2023-02-02T13:58:58.388Z,98174.44
2023-02-02T14:02:07.602Z,98180.09
2023-02-02T14:05:28.289Z,98171.44
2023-02-02T14:08:33.792Z,98173.41
2023-02-02T14:11:42.565Z,98174.44
2023-02-02T14:14:48.180Z,98175.19
2023-02-02T14:17:55.564Z,98175.31
2023-02-02T14:21:01.422Z,98176.66
2023-02-02T14:24:26.151Z,98176.19
2023-02-02T14:27:57.133Z,98158.53
2023-02-02T14:31:27.710Z,98162.56
2023-02-02T14:34:47.032Z,98161.53
2023-02-02T14:37:59.092Z,98174.22
2023-02-02T14:41:13.519Z,98170.09
2023-02-02T14:44:16.368Z,98170.22
2023-02-02T14:47:54.756Z,98161.09
2023-02-02T14:51:00.601Z,98151.56
2023-02-02T14:54:18.445Z,98146.13
2023-02-02T14:57:28.610Z,98151.66
2023-02-02T15:00:36.653Z,98156.31
2023-02-02T15:03:53.245Z,98163.63
2023-02-02T15:06:59.592Z,98178.41
2023-02-02T15:10:05.389Z,98175.75
2023-02-02T15:13:16.089Z,98177.53
2023-02-02T15:16:26.883Z,98174.22
2023-02-02T15:19:36.897Z,98167.53
2023-02-02T15:22:48.230Z,98167.19
2023-02-02T15:26:00.941Z,98182.97
2023-02-02T15:29:09.140Z,98177.44
2023-02-02T15:32:19.432Z,98169.44
2023-02-02T15:35:28.484Z,98168.56
2023-02-02T15:38:37.242Z,98170.88
2023-02-02T15:41:45.353Z,98167.53
2023-02-02T15:44:49.152Z,98178.97
2023-02-02T15:47:52.810Z,98192.50
2023-02-02T15:50:59.977Z,98193.06
2023-02-02T15:54:03.617Z,98169.22
2023-02-02T15:57:34.474Z,98178.63
2023-02-02T16:00:38.695Z,98169.84
2023-02-02T16:03:49.489Z,98170.75
2023-02-02T16:06:53.499Z,98180.94
2023-02-02T16:09:58.047Z,98175.41
2023-02-02T16:13:03.365Z,98196.38
2023-02-02T16:16:22.124Z,98200.69
2023-02-02T16:19:27.513Z,98198.13
2023-02-02T16:22:33.120Z,98200.75
2023-02-02T16:25:48.194Z,98209.16
2023-02-02T16:28:54.180Z,98210.63
2023-02-02T16:31:58.563Z,98219.63
2023-02-02T16:35:05.914Z,98222.56
2023-02-02T16:38:14.954Z,98221.88
2023-02-02T16:41:28.280Z,98225.75
2023-02-02T16:44:40.577Z,98225.41
2023-02-02T16:47:44.443Z,98234.06
2023-02-02T16:50:51.876Z,98230.00
2023-02-02T16:54:01.347Z,98241.25
2023-02-02T16:57:06.502Z,98239.94
2023-02-02T17:00:22.763Z,98240.88
2023-02-02T17:03:32.736Z,98239.81
2023-02-02T17:06:51.849Z,98252.13
2023-02-02T17:10:16.073Z,98245.19
2023-02-02T17:13:37.147Z,98245.97
2023-02-02T17:16:43.510Z,98242.09
2023-02-02T17:19:48.617Z,98249.63
2023-02-02T17:22:55.508Z,98254.19
2023-02-02T17:26:00.592Z,98251.09
2023-02-02T17:29:05.526Z,98264.69
2023-02-02T17:32:13.903Z,98271.50
2023-02-02T17:35:19.572Z,98264.22
2023-02-02T17:38:24.236Z,98269.94
2023-02-02T17:41:28.157Z,98265.00
2023-02-02T17:44:33.752Z,98261.31
2023-02-02T17:47:40.130Z,98255.75
2023-02-02T17:50:45.008Z,98249.34
2023-02-02T17:53:48.563Z,98250.56
2023-02-02T17:56:52.219Z,98258.38
2023-02-02T17:59:55.718Z,98251.59
2023-02-02T18:03:10.221Z,98262.03
2023-02-02T18:06:13.706Z,98258.53
2023-02-02T18:09:17.884Z,98268.44
2023-02-02T18:12:21.532Z,98268.03
2023-02-02T18:15:26.074Z,98264.97
2023-02-02T18:18:31.456Z,98271.22
2023-02-02T18:21:35.367Z,98270.53
2023-02-02T18:24:38.803Z,98273.16
2023-02-02T18:27:42.640Z,98271.19
2023-02-02T18:30:47.110Z,98273.53
2023-02-02T18:33:52.452Z,98266.50
2023-02-02T18:36:55.814Z,98260.22
2023-02-02T18:39:59.654Z,98281.59
2023-02-02T18:43:03.186Z,98276.97
2023-02-02T18:46:10.328Z,98288.91
2023-02-02T18:49:15.300Z,98275.53
2023-02-02T18:52:19.934Z,98285.88
2023-02-02T18:55:23.509Z,98282.59
2023-02-02T18:58:27.689Z,98282.81
2023-02-02T19:01:31.398Z,98281.56
2023-02-02T19:04:36.755Z,98281.97
2023-02-02T19:07:58.154Z,98270.91
2023-02-02T19:11:12.808Z,98275.38
2023-02-02T19:14:18.575Z,98279.16
2023-02-02T19:17:24.627Z,98270.91
2023-02-02T19:20:31.466Z,98271.13
2023-02-02T19:23:43.200Z,98283.97
2023-02-02T19:26:49.497Z,98278.88
2023-02-02T19:29:59.879Z,98286.59
2023-02-02T19:33:03.643Z,98290.94
2023-02-02T19:36:14.504Z,98297.00
2023-02-02T19:39:20.433Z,98295.22
2023-02-02T19:42:24.902Z,98288.19
2023-02-02T19:45:33.540Z,98294.44
2023-02-02T19:48:41.281Z,98299.28
2023-02-02T19:51:47.945Z,98296.16
2023-02-02T19:54:51.998Z,98300.03
2023-02-02T19:58:01.968Z,98291.13
2023-02-02T20:01:25.123Z,98297.28
2023-02-02T20:04:29.632Z,98295.34
2023-02-02T20:07:35.088Z,98299.09
2023-02-02T20:10:42.819Z,98312.00
2023-02-02T20:13:49.526Z,98310.50
2023-02-02T20:16:56.315Z,98320.47
2023-02-02T20:20:01.116Z,98330.19
2023-02-02T20:23:17.452Z,98348.88
2023-02-02T20:26:26.041Z,98351.66
2023-02-02T20:29:39.199Z,98353.13
2023-02-02T20:32:43.186Z,98365.28
2023-02-02T20:35:47.021Z,98368.06
2023-02-02T20:38:52.720Z,98364.72
2023-02-02T20:41:59.144Z,98369.38
2023-02-02T20:45:06.819Z,98364.50
2023-02-02T20:48:12.519Z,98369.03
2023-02-02T20:51:17.063Z,98377.34
2023-02-02T20:54:23.087Z,98380.88
2023-02-02T20:57:27.200Z,98387.47
2023-02-02T21:00:31.282Z,98386.63
2023-02-02T21:03:36.168Z,98395.03
2023-02-02T21:06:42.045Z,98403.44
2023-02-02T21:09:49.475Z,98405.88
2023-02-02T21:12:54.429Z,98403.84
2023-02-02T21:15:58.763Z,98419.69
2023-02-02T21:19:02.580Z,98434.09
2023-02-02T21:22:06.525Z,98435.19
2023-02-02T21:25:12.935Z,98454.53
2023-02-02T21:28:18.586Z,98452.44
2023-02-02T21:31:22.384Z,98448.75
2023-02-02T21:34:26.887Z,98460.56
2023-02-02T21:37:30.531Z,98463.50
2023-02-02T21:40:36.284Z,98457.94
2023-02-02T21:43:40.055Z,98464.78
2023-02-02T21:46:44.809Z,98473.53
2023-02-02T21:49:48.652Z,98475.88
2023-02-02T21:52:52.993Z,98472.63
2023-02-02T21:56:00.056Z,98478.75
2023-02-02T21:59:13.096Z,98481.09
2023-02-02T22:02:39.313Z,98495.59
2023-02-02T22:05:43.351Z,98492.47
2023-02-02T22:08:48.655Z,98496.16
2023-02-02T22:11:58.535Z,98499.19
2023-02-02T22:15:04.948Z,98496.53
2023-02-02T22:18:20.769Z,98496.69
2023-02-02T22:21:26.138Z,98501.56
2023-02-02T22:24:30.755Z,98507.06
2023-02-02T22:27:43.011Z,98500.78
2023-02-02T22:30:47.162Z,98508.81
2023-02-02T22:33:50.596Z,98515.59
2023-02-02T22:36:54.328Z,98512.59
2023-02-02T22:40:00.785Z,98505.75
2023-02-02T22:43:07.997Z,98506.13
2023-02-02T22:46:11.550Z,98498.88
2023-02-02T22:49:15.538Z,98503.56
2023-02-02T22:52:19.170Z,98514.97
2023-02-02T22:55:23.690Z,98516.63
2023-02-02T22:58:28.665Z,98522.78
2023-02-02T23:01:32.469Z,98526.41
2023-02-02T23:04:36.314Z,98526.16
2023-02-02T23:07:40.389Z,98525.41
2023-02-02T23:10:43.745Z,98524.72
2023-02-02T23:13:49.030Z,98534.59
2023-02-02T23:16:52.522Z,98535.19
2023-02-02T23:19:56.456Z,98545.03
2023-02-02T23:23:00.107Z,98548.16
2023-02-02T23:26:04.047Z,98539.59
2023-02-02T23:29:09.294Z,98552.28
2023-02-02T23:32:13.350Z,98551.94
2023-02-02T23:35:17.426Z,98557.66
2023-02-02T23:38:22.376Z,98553.44
2023-02-02T23:41:26.527Z,98558.09
2023-02-02T23:44:32.270Z,98562.38
2023-02-02T23:47:36.595Z,98562.88
2023-02-02T23:50:41.085Z,98567.50
2023-02-02T23:53:45.443Z,98566.09
2023-02-02T23:56:51.557Z,98570.53
2023-02-02T23:59:56.508Z,98565.25
